North Fork, Pennsylvania
Current Conditions -  °F | °C
As of 5:15 AM on Tuesday 21 Oct 2014 (Local Time) from KN38 Reporting Station
Broken Clouds Broken Clouds  
Wind Chill: 42°   Ceiling: 3600
Heat Index: 45°   Visibility: 10mi
Dew Point: 39°   Wind: 5mph
Humidity: 81%   Direction: 220°SW
Pressure: 29.83"   Gusts: NA
Location:  41.9252°N, 77.5198°W
Report Text: KN38 210915Z AUTO 22004KT 10SM FEW020 SCT031 BKN036 07/04 A2983 RMK AO2
Loading
Personal Weather Stations






























Interactive Weather Map
Tropical Storm Tracking
New forecast layout! Learn more

10-Day Weather Forecast

Advertisements
Track Severe Weather on mobile